sensor_id;sensor_type;location;lat;lon;timestamp;P1;durP1;ratioP1;P2;durP2;ratioP2
4355;SDS011;2191;51.482;7.408;2022-08-19T00:01:55;11.20;;;8.80;;
4355;SDS011;2191;51.482;7.408;2022-08-19T00:04:28;13.40;;;9.23;;
4355;SDS011;2191;51.482;7.408;2022-08-19T00:06:58;11.00;;;9.90;;
4355;SDS011;2191;51.482;7.408;2022-08-19T00:09:27;12.30;;;10.70;;
4355;SDS011;2191;51.482;7.408;2022-08-19T00:11:56;11.50;;;9.43;;
4355;SDS011;2191;51.482;7.408;2022-08-19T00:14:25;11.17;;;9.90;;
4355;SDS011;2191;51.482;7.408;2022-08-19T00:16:58;9.63;;;8.63;;
4355;SDS011;2191;51.482;7.408;2022-08-19T00:19:28;9.97;;;8.97;;
4355;SDS011;2191;51.482;7.408;2022-08-19T00:21:57;11.13;;;10.00;;
4355;SDS011;2191;51.482;7.408;2022-08-19T00:24:26;10.67;;;9.67;;
4355;SDS011;2191;51.482;7.408;2022-08-19T00:26:54;11.03;;;10.03;;
4355;SDS011;2191;51.482;7.408;2022-08-19T00:29:43;11.90;;;9.97;;
4355;SDS011;2191;51.482;7.408;2022-08-19T00:32:19;9.93;;;8.37;;
4355;SDS011;2191;51.482;7.408;2022-08-19T00:34:49;10.73;;;9.17;;
4355;SDS011;2191;51.482;7.408;2022-08-19T00:37:19;9.93;;;9.03;;
4355;SDS011;2191;51.482;7.408;2022-08-19T00:39:48;10.10;;;9.13;;
4355;SDS011;2191;51.482;7.408;2022-08-19T00:42:17;9.60;;;8.60;;
4355;SDS011;2191;51.482;7.408;2022-08-19T00:44:48;10.80;;;9.70;;
4355;SDS011;2191;51.482;7.408;2022-08-19T00:47:16;9.93;;;8.90;;
4355;SDS011;2191;51.482;7.408;2022-08-19T00:49:48;11.50;;;8.93;;
4355;SDS011;2191;51.482;7.408;2022-08-19T00:52:21;12.20;;;9.27;;
4355;SDS011;2191;51.482;7.408;2022-08-19T00:54:50;14.13;;;10.00;;
4355;SDS011;2191;51.482;7.408;2022-08-19T00:57:21;11.77;;;10.20;;
4355;SDS011;2191;51.482;7.408;2022-08-19T00:59:54;10.57;;;9.47;;
4355;SDS011;2191;51.482;7.408;2022-08-19T01:02:30;12.83;;;9.30;;
4355;SDS011;2191;51.482;7.408;2022-08-19T01:05:03;11.10;;;9.90;;
4355;SDS011;2191;51.482;7.408;2022-08-19T01:07:35;11.67;;;10.60;;
4355;SDS011;2191;51.482;7.408;2022-08-19T01:10:07;11.60;;;10.03;;
4355;SDS011;2191;51.482;7.408;2022-08-19T01:12:37;13.97;;;10.60;;
4355;SDS011;2191;51.482;7.408;2022-08-19T01:15:06;10.90;;;9.10;;
4355;SDS011;2191;51.482;7.408;2022-08-19T01:17:38;10.13;;;9.23;;
4355;SDS011;2191;51.482;7.408;2022-08-19T01:20:10;13.00;;;9.70;;
4355;SDS011;2191;51.482;7.408;2022-08-19T01:22:42;13.40;;;12.00;;
4355;SDS011;2191;51.482;7.408;2022-08-19T01:25:12;12.10;;;10.67;;
4355;SDS011;2191;51.482;7.408;2022-08-19T01:27:41;12.53;;;9.63;;
4355;SDS011;2191;51.482;7.408;2022-08-19T01:30:11;12.97;;;11.43;;
4355;SDS011;2191;51.482;7.408;2022-08-19T01:32:41;12.40;;;10.97;;
4355;SDS011;2191;51.482;7.408;2022-08-19T01:35:10;12.90;;;10.50;;
4355;SDS011;2191;51.482;7.408;2022-08-19T01:37:48;11.97;;;10.67;;
4355;SDS011;2191;51.482;7.408;2022-08-19T01:40:18;12.17;;;10.03;;
4355;SDS011;2191;51.482;7.408;2022-08-19T01:42:47;11.40;;;10.23;;
4355;SDS011;2191;51.482;7.408;2022-08-19T01:45:16;11.60;;;10.37;;
4355;SDS011;2191;51.482;7.408;2022-08-19T01:47:44;13.47;;;11.13;;
4355;SDS011;2191;51.482;7.408;2022-08-19T01:50:27;13.83;;;11.20;;
4355;SDS011;2191;51.482;7.408;2022-08-19T01:52:57;12.13;;;10.90;;
4355;SDS011;2191;51.482;7.408;2022-08-19T01:55:33;10.87;;;9.77;;
4355;SDS011;2191;51.482;7.408;2022-08-19T01:58:07;16.20;;;10.57;;
4355;SDS011;2191;51.482;7.408;2022-08-19T02:00:37;10.03;;;9.13;;
4355;SDS011;2191;51.482;7.408;2022-08-19T02:03:05;11.40;;;10.20;;
4355;SDS011;2191;51.482;7.408;2022-08-19T02:05:36;14.10;;;11.47;;
4355;SDS011;2191;51.482;7.408;2022-08-19T02:08:06;14.40;;;12.10;;
4355;SDS011;2191;51.482;7.408;2022-08-19T02:10:38;16.77;;;12.20;;
4355;SDS011;2191;51.482;7.408;2022-08-19T02:13:07;16.60;;;12.07;;
4355;SDS011;2191;51.482;7.408;2022-08-19T02:15:37;15.90;;;13.30;;
4355;SDS011;2191;51.482;7.408;2022-08-19T02:18:05;17.77;;;13.77;;
4355;SDS011;2191;51.482;7.408;2022-08-19T02:20:35;15.63;;;14.03;;
4355;SDS011;2191;51.482;7.408;2022-08-19T02:23:06;15.43;;;13.73;;
4355;SDS011;2191;51.482;7.408;2022-08-19T02:25:41;16.27;;;14.50;;
4355;SDS011;2191;51.482;7.408;2022-08-19T02:28:10;19.93;;;16.93;;
4355;SDS011;2191;51.482;7.408;2022-08-19T02:30:44;19.20;;;16.20;;
4355;SDS011;2191;51.482;7.408;2022-08-19T02:33:12;15.70;;;14.13;;
4355;SDS011;2191;51.482;7.408;2022-08-19T02:35:43;15.03;;;13.53;;
4355;SDS011;2191;51.482;7.408;2022-08-19T02:38:13;18.17;;;14.73;;
4355;SDS011;2191;51.482;7.408;2022-08-19T02:40:53;13.57;;;11.83;;
4355;SDS011;2191;51.482;7.408;2022-08-19T02:43:24;13.60;;;12.10;;
4355;SDS011;2191;51.482;7.408;2022-08-19T02:45:53;17.20;;;11.90;;
4355;SDS011;2191;51.482;7.408;2022-08-19T02:48:22;14.60;;;12.23;;
4355;SDS011;2191;51.482;7.408;2022-08-19T02:50:52;13.90;;;12.50;;
4355;SDS011;2191;51.482;7.408;2022-08-19T02:53:24;14.87;;;11.90;;
4355;SDS011;2191;51.482;7.408;2022-08-19T02:55:53;13.80;;;12.37;;
4355;SDS011;2191;51.482;7.408;2022-08-19T02:58:22;13.03;;;11.60;;
4355;SDS011;2191;51.482;7.408;2022-08-19T03:00:54;14.93;;;12.70;;
4355;SDS011;2191;51.482;7.408;2022-08-19T03:03:23;20.40;;;15.70;;
4355;SDS011;2191;51.482;7.408;2022-08-19T03:05:51;15.13;;;13.50;;
4355;SDS011;2191;51.482;7.408;2022-08-19T03:08:31;17.20;;;14.00;;
4355;SDS011;2191;51.482;7.408;2022-08-19T03:11:02;18.27;;;15.77;;
4355;SDS011;2191;51.482;7.408;2022-08-19T03:13:31;18.27;;;15.00;;
4355;SDS011;2191;51.482;7.408;2022-08-19T03:15:59;17.43;;;15.63;;
4355;SDS011;2191;51.482;7.408;2022-08-19T03:18:31;16.40;;;14.70;;
4355;SDS011;2191;51.482;7.408;2022-08-19T03:21:00;18.27;;;15.97;;
4355;SDS011;2191;51.482;7.408;2022-08-19T03:23:28;19.20;;;14.73;;
4355;SDS011;2191;51.482;7.408;2022-08-19T03:25:57;19.30;;;15.53;;
4355;SDS011;2191;51.482;7.408;2022-08-19T03:28:41;16.47;;;14.27;;
4355;SDS011;2191;51.482;7.408;2022-08-19T03:31:24;21.13;;;15.20;;
4355;SDS011;2191;51.482;7.408;2022-08-19T03:34:22;21.93;;;17.30;;
4355;SDS011;2191;51.482;7.408;2022-08-19T03:36:53;21.67;;;19.27;;
4355;SDS011;2191;51.482;7.408;2022-08-19T03:39:22;20.23;;;17.97;;
4355;SDS011;2191;51.482;7.408;2022-08-19T03:41:53;19.33;;;17.30;;
4355;SDS011;2191;51.482;7.408;2022-08-19T03:44:43;22.00;;;17.17;;
4355;SDS011;2191;51.482;7.408;2022-08-19T03:47:12;18.80;;;16.70;;
4355;SDS011;2191;51.482;7.408;2022-08-19T03:49:43;18.40;;;16.33;;
4355;SDS011;2191;51.482;7.408;2022-08-19T03:52:11;23.00;;;17.23;;
4355;SDS011;2191;51.482;7.408;2022-08-19T03:54:40;20.63;;;16.57;;
4355;SDS011;2191;51.482;7.408;2022-08-19T03:57:09;22.80;;;16.13;;
4355;SDS011;2191;51.482;7.408;2022-08-19T03:59:38;21.33;;;16.70;;
4355;SDS011;2191;51.482;7.408;2022-08-19T04:02:07;20.70;;;15.70;;
4355;SDS011;2191;51.482;7.408;2022-08-19T04:04:36;18.50;;;15.47;;
4355;SDS011;2191;51.482;7.408;2022-08-19T04:07:06;17.70;;;15.90;;
4355;SDS011;2191;51.482;7.408;2022-08-19T04:09:35;20.20;;;16.43;;
4355;SDS011;2191;51.482;7.408;2022-08-19T04:12:03;19.40;;;16.73;;
4355;SDS011;2191;51.482;7.408;2022-08-19T04:14:34;19.93;;;17.87;;
4355;SDS011;2191;51.482;7.408;2022-08-19T04:17:02;17.93;;;16.03;;
4355;SDS011;2191;51.482;7.408;2022-08-19T04:19:34;23.93;;;18.53;;
4355;SDS011;2191;51.482;7.408;2022-08-19T04:22:03;23.60;;;19.20;;
4355;SDS011;2191;51.482;7.408;2022-08-19T04:24:31;21.67;;;19.10;;
4355;SDS011;2191;51.482;7.408;2022-08-19T04:27:02;23.33;;;17.03;;
4355;SDS011;2191;51.482;7.408;2022-08-19T04:29:31;17.03;;;15.23;;
4355;SDS011;2191;51.482;7.408;2022-08-19T04:32:01;19.40;;;16.40;;
4355;SDS011;2191;51.482;7.408;2022-08-19T04:34:34;19.40;;;17.27;;
4355;SDS011;2191;51.482;7.408;2022-08-19T04:37:22;19.60;;;16.60;;
4355;SDS011;2191;51.482;7.408;2022-08-19T04:39:50;21.30;;;17.13;;
4355;SDS011;2191;51.482;7.408;2022-08-19T04:42:36;21.00;;;17.53;;
4355;SDS011;2191;51.482;7.408;2022-08-19T04:45:10;19.97;;;17.80;;
4355;SDS011;2191;51.482;7.408;2022-08-19T04:47:40;19.50;;;17.10;;
4355;SDS011;2191;51.482;7.408;2022-08-19T04:50:23;22.03;;;19.13;;
4355;SDS011;2191;51.482;7.408;2022-08-19T04:52:52;21.17;;;18.80;;
4355;SDS011;2191;51.482;7.408;2022-08-19T04:55:24;26.00;;;20.97;;
4355;SDS011;2191;51.482;7.408;2022-08-19T04:57:52;21.33;;;17.40;;
4355;SDS011;2191;51.482;7.408;2022-08-19T05:00:22;25.80;;;19.93;;
4355;SDS011;2191;51.482;7.408;2022-08-19T05:02:50;18.57;;;16.47;;
4355;SDS011;2191;51.482;7.408;2022-08-19T05:05:19;21.17;;;17.20;;
4355;SDS011;2191;51.482;7.408;2022-08-19T05:07:47;25.00;;;20.00;;
4355;SDS011;2191;51.482;7.408;2022-08-19T05:10:15;21.50;;;18.37;;
4355;SDS011;2191;51.482;7.408;2022-08-19T05:12:46;19.80;;;17.70;;
4355;SDS011;2191;51.482;7.408;2022-08-19T05:15:15;24.07;;;21.13;;
4355;SDS011;2191;51.482;7.408;2022-08-19T05:17:44;23.10;;;19.90;;
4355;SDS011;2191;51.482;7.408;2022-08-19T05:20:27;25.33;;;21.73;;
4355;SDS011;2191;51.482;7.408;2022-08-19T05:23:13;27.80;;;21.63;;
4355;SDS011;2191;51.482;7.408;2022-08-19T05:25:48;29.20;;;22.30;;
4355;SDS011;2191;51.482;7.408;2022-08-19T05:28:17;29.47;;;23.43;;
4355;SDS011;2191;51.482;7.408;2022-08-19T05:30:45;28.30;;;22.53;;
4355;SDS011;2191;51.482;7.408;2022-08-19T05:33:15;29.43;;;20.80;;
4355;SDS011;2191;51.482;7.408;2022-08-19T05:35:43;26.33;;;21.10;;
4355;SDS011;2191;51.482;7.408;2022-08-19T05:38:14;30.07;;;22.97;;
4355;SDS011;2191;51.482;7.408;2022-08-19T05:40:42;25.93;;;22.60;;
4355;SDS011;2191;51.482;7.408;2022-08-19T05:43:15;25.93;;;21.07;;
4355;SDS011;2191;51.482;7.408;2022-08-19T05:45:44;24.23;;;21.70;;
4355;SDS011;2191;51.482;7.408;2022-08-19T05:48:12;27.90;;;20.70;;
4355;SDS011;2191;51.482;7.408;2022-08-19T05:50:42;26.50;;;20.30;;
4355;SDS011;2191;51.482;7.408;2022-08-19T05:53:11;24.70;;;19.90;;
4355;SDS011;2191;51.482;7.408;2022-08-19T05:55:40;29.40;;;19.57;;
4355;SDS011;2191;51.482;7.408;2022-08-19T05:58:08;26.97;;;20.33;;
4355;SDS011;2191;51.482;7.408;2022-08-19T06:00:38;27.87;;;21.40;;
4355;SDS011;2191;51.482;7.408;2022-08-19T06:03:07;24.80;;;19.27;;
4355;SDS011;2191;51.482;7.408;2022-08-19T06:05:39;26.53;;;20.07;;
4355;SDS011;2191;51.482;7.408;2022-08-19T06:08:19;24.77;;;20.30;;
4355;SDS011;2191;51.482;7.408;2022-08-19T06:11:11;27.03;;;18.60;;
4355;SDS011;2191;51.482;7.408;2022-08-19T06:13:41;24.73;;;19.37;;
4355;SDS011;2191;51.482;7.408;2022-08-19T06:16:11;20.33;;;17.97;;
4355;SDS011;2191;51.482;7.408;2022-08-19T06:18:39;23.37;;;20.43;;
4355;SDS011;2191;51.482;7.408;2022-08-19T06:21:06;20.40;;;18.13;;
4355;SDS011;2191;51.482;7.408;2022-08-19T06:23:36;25.20;;;20.73;;
4355;SDS011;2191;51.482;7.408;2022-08-19T06:26:05;26.60;;;20.20;;
4355;SDS011;2191;51.482;7.408;2022-08-19T06:28:38;23.10;;;19.93;;
4355;SDS011;2191;51.482;7.408;2022-08-19T06:31:09;28.20;;;21.07;;
4355;SDS011;2191;51.482;7.408;2022-08-19T06:33:37;26.37;;;19.63;;
4355;SDS011;2191;51.482;7.408;2022-08-19T06:36:06;25.10;;;20.40;;
4355;SDS011;2191;51.482;7.408;2022-08-19T06:38:36;28.53;;;19.93;;
4355;SDS011;2191;51.482;7.408;2022-08-19T06:41:04;24.60;;;18.33;;
4355;SDS011;2191;51.482;7.408;2022-08-19T06:43:33;25.43;;;20.20;;
4355;SDS011;2191;51.482;7.408;2022-08-19T06:46:09;24.80;;;18.90;;
4355;SDS011;2191;51.482;7.408;2022-08-19T06:48:40;26.00;;;19.27;;
4355;SDS011;2191;51.482;7.408;2022-08-19T06:51:11;22.50;;;19.80;;
4355;SDS011;2191;51.482;7.408;2022-08-19T06:53:46;23.30;;;17.93;;
4355;SDS011;2191;51.482;7.408;2022-08-19T06:56:20;24.03;;;17.73;;
4355;SDS011;2191;51.482;7.408;2022-08-19T06:58:51;24.50;;;16.60;;
4355;SDS011;2191;51.482;7.408;2022-08-19T07:01:19;20.03;;;16.63;;
4355;SDS011;2191;51.482;7.408;2022-08-19T07:03:47;19.57;;;15.70;;
4355;SDS011;2191;51.482;7.408;2022-08-19T07:06:16;17.17;;;15.33;;
4355;SDS011;2191;51.482;7.408;2022-08-19T07:09:10;25.73;;;17.07;;
4355;SDS011;2191;51.482;7.408;2022-08-19T07:11:44;22.97;;;15.30;;
4355;SDS011;2191;51.482;7.408;2022-08-19T07:14:13;20.77;;;16.90;;
4355;SDS011;2191;51.482;7.408;2022-08-19T07:16:45;18.50;;;15.30;;
4355;SDS011;2191;51.482;7.408;2022-08-19T07:19:14;19.53;;;15.63;;
4355;SDS011;2191;51.482;7.408;2022-08-19T07:21:44;24.13;;;16.50;;
4355;SDS011;2191;51.482;7.408;2022-08-19T07:24:15;19.40;;;15.57;;
4355;SDS011;2191;51.482;7.408;2022-08-19T07:26:44;22.43;;;17.43;;
4355;SDS011;2191;51.482;7.408;2022-08-19T07:29:17;23.00;;;16.20;;
4355;SDS011;2191;51.482;7.408;2022-08-19T07:31:51;19.93;;;15.20;;
4355;SDS011;2191;51.482;7.408;2022-08-19T07:34:22;20.30;;;18.20;;
4355;SDS011;2191;51.482;7.408;2022-08-19T07:36:53;20.00;;;15.60;;
4355;SDS011;2191;51.482;7.408;2022-08-19T07:39:24;20.43;;;16.83;;
4355;SDS011;2191;51.482;7.408;2022-08-19T07:41:56;19.47;;;17.10;;
4355;SDS011;2191;51.482;7.408;2022-08-19T07:44:25;18.37;;;15.53;;
4355;SDS011;2191;51.482;7.408;2022-08-19T07:46:54;24.07;;;17.03;;
4355;SDS011;2191;51.482;7.408;2022-08-19T07:49:26;22.27;;;17.97;;
4355;SDS011;2191;51.482;7.408;2022-08-19T07:51:58;26.90;;;18.53;;
4355;SDS011;2191;51.482;7.408;2022-08-19T07:54:30;20.77;;;14.87;;
4355;SDS011;2191;51.482;7.408;2022-08-19T07:57:00;24.60;;;17.60;;
4355;SDS011;2191;51.482;7.408;2022-08-19T07:59:30;24.90;;;18.00;;
4355;SDS011;2191;51.482;7.408;2022-08-19T08:01:58;22.50;;;16.77;;
4355;SDS011;2191;51.482;7.408;2022-08-19T08:04:32;27.60;;;21.23;;
4355;SDS011;2191;51.482;7.408;2022-08-19T08:07:17;22.77;;;19.10;;
4355;SDS011;2191;51.482;7.408;2022-08-19T08:10:04;29.10;;;19.43;;
4355;SDS011;2191;51.482;7.408;2022-08-19T08:12:46;24.27;;;17.20;;
4355;SDS011;2191;51.482;7.408;2022-08-19T08:15:35;18.40;;;15.13;;
4355;SDS011;2191;51.482;7.408;2022-08-19T08:18:08;18.20;;;16.03;;
4355;SDS011;2191;51.482;7.408;2022-08-19T08:20:37;22.03;;;17.17;;
4355;SDS011;2191;51.482;7.408;2022-08-19T08:23:05;20.70;;;16.60;;
4355;SDS011;2191;51.482;7.408;2022-08-19T08:25:54;24.33;;;15.30;;
4355;SDS011;2191;51.482;7.408;2022-08-19T08:28:24;20.50;;;14.30;;
4355;SDS011;2191;51.482;7.408;2022-08-19T08:30:56;20.97;;;9.73;;
4355;SDS011;2191;51.482;7.408;2022-08-19T08:33:26;15.10;;;11.73;;
4355;SDS011;2191;51.482;7.408;2022-08-19T08:36:00;13.53;;;9.90;;
4355;SDS011;2191;51.482;7.408;2022-08-19T08:38:30;14.70;;;13.23;;
4355;SDS011;2191;51.482;7.408;2022-08-19T08:41:09;15.10;;;10.30;;
4355;SDS011;2191;51.482;7.408;2022-08-19T08:43:46;13.17;;;10.80;;
4355;SDS011;2191;51.482;7.408;2022-08-19T08:46:18;11.93;;;10.70;;
4355;SDS011;2191;51.482;7.408;2022-08-19T08:48:59;14.87;;;12.97;;
4355;SDS011;2191;51.482;7.408;2022-08-19T08:51:32;17.77;;;14.30;;
4355;SDS011;2191;51.482;7.408;2022-08-19T08:54:12;20.83;;;15.90;;
4355;SDS011;2191;51.482;7.408;2022-08-19T08:56:43;18.97;;;16.90;;
4355;SDS011;2191;51.482;7.408;2022-08-19T08:59:15;17.80;;;14.70;;
4355;SDS011;2191;51.482;7.408;2022-08-19T09:01:47;17.40;;;15.60;;
4355;SDS011;2191;51.482;7.408;2022-08-19T09:04:16;23.73;;;16.80;;
4355;SDS011;2191;51.482;7.408;2022-08-19T09:06:46;25.17;;;16.40;;
4355;SDS011;2191;51.482;7.408;2022-08-19T09:09:26;19.40;;;14.57;;
4355;SDS011;2191;51.482;7.408;2022-08-19T09:12:04;22.40;;;19.87;;
4355;SDS011;2191;51.482;7.408;2022-08-19T09:14:42;16.00;;;14.00;;
4355;SDS011;2191;51.482;7.408;2022-08-19T09:17:18;22.60;;;13.03;;
4355;SDS011;2191;51.482;7.408;2022-08-19T09:19:55;18.10;;;13.37;;
4355;SDS011;2191;51.482;7.408;2022-08-19T09:22:26;16.00;;;11.57;;
4355;SDS011;2191;51.482;7.408;2022-08-19T09:24:54;20.20;;;17.23;;
4355;SDS011;2191;51.482;7.408;2022-08-19T09:27:25;20.23;;;15.17;;
4355;SDS011;2191;51.482;7.408;2022-08-19T09:30:15;15.00;;;12.50;;
4355;SDS011;2191;51.482;7.408;2022-08-19T09:32:44;18.40;;;12.30;;
4355;SDS011;2191;51.482;7.408;2022-08-19T09:35:19;15.23;;;13.57;;
4355;SDS011;2191;51.482;7.408;2022-08-19T09:37:49;17.30;;;13.30;;
4355;SDS011;2191;51.482;7.408;2022-08-19T09:40:25;15.57;;;14.00;;
4355;SDS011;2191;51.482;7.408;2022-08-19T09:42:57;16.77;;;13.33;;
4355;SDS011;2191;51.482;7.408;2022-08-19T09:45:35;15.10;;;13.00;;
4355;SDS011;2191;51.482;7.408;2022-08-19T09:48:03;21.97;;;16.70;;
4355;SDS011;2191;51.482;7.408;2022-08-19T09:50:32;14.67;;;11.10;;
4355;SDS011;2191;51.482;7.408;2022-08-19T09:53:01;26.60;;;22.73;;
4355;SDS011;2191;51.482;7.408;2022-08-19T09:55:32;26.13;;;23.43;;
4355;SDS011;2191;51.482;7.408;2022-08-19T09:58:01;24.90;;;22.17;;
4355;SDS011;2191;51.482;7.408;2022-08-19T10:00:30;25.00;;;22.60;;
4355;SDS011;2191;51.482;7.408;2022-08-19T10:02:58;14.23;;;12.30;;
4355;SDS011;2191;51.482;7.408;2022-08-19T10:05:26;24.83;;;22.07;;
4355;SDS011;2191;51.482;7.408;2022-08-19T10:08:14;28.73;;;25.70;;
4355;SDS011;2191;51.482;7.408;2022-08-19T10:10:46;19.87;;;17.87;;
4355;SDS011;2191;51.482;7.408;2022-08-19T10:13:16;24.23;;;19.40;;
4355;SDS011;2191;51.482;7.408;2022-08-19T10:15:48;20.50;;;17.07;;
4355;SDS011;2191;51.482;7.408;2022-08-19T10:18:18;15.07;;;13.30;;
4355;SDS011;2191;51.482;7.408;2022-08-19T10:20:48;14.00;;;12.23;;
4355;SDS011;2191;51.482;7.408;2022-08-19T10:23:18;12.50;;;11.27;;
4355;SDS011;2191;51.482;7.408;2022-08-19T10:25:47;12.73;;;10.50;;
4355;SDS011;2191;51.482;7.408;2022-08-19T10:28:17;13.43;;;10.20;;
4355;SDS011;2191;51.482;7.408;2022-08-19T10:30:48;14.60;;;12.87;;
4355;SDS011;2191;51.482;7.408;2022-08-19T10:33:16;19.60;;;14.00;;
4355;SDS011;2191;51.482;7.408;2022-08-19T10:36:06;26.40;;;14.97;;
4355;SDS011;2191;51.482;7.408;2022-08-19T10:38:36;15.50;;;13.67;;
4355;SDS011;2191;51.482;7.408;2022-08-19T10:41:18;17.63;;;15.50;;
4355;SDS011;2191;51.482;7.408;2022-08-19T10:43:55;14.10;;;12.60;;
4355;SDS011;2191;51.482;7.408;2022-08-19T10:46:29;15.70;;;13.97;;
4355;SDS011;2191;51.482;7.408;2022-08-19T10:48:59;20.00;;;15.30;;
4355;SDS011;2191;51.482;7.408;2022-08-19T10:51:29;16.77;;;15.17;;
4355;SDS011;2191;51.482;7.408;2022-08-19T10:54:14;15.07;;;13.47;;
4355;SDS011;2191;51.482;7.408;2022-08-19T10:56:56;14.17;;;12.43;;
4355;SDS011;2191;51.482;7.408;2022-08-19T10:59:25;12.33;;;11.23;;
4355;SDS011;2191;51.482;7.408;2022-08-19T11:02:01;11.80;;;10.70;;
4355;SDS011;2191;51.482;7.408;2022-08-19T11:04:32;10.40;;;9.20;;
4355;SDS011;2191;51.482;7.408;2022-08-19T11:07:01;9.47;;;7.70;;
4355;SDS011;2191;51.482;7.408;2022-08-19T11:09:30;11.10;;;10.00;;
4355;SDS011;2191;51.482;7.408;2022-08-19T11:12:00;11.87;;;10.80;;
4355;SDS011;2191;51.482;7.408;2022-08-19T11:14:31;12.53;;;11.17;;
4355;SDS011;2191;51.482;7.408;2022-08-19T11:17:01;10.97;;;9.97;;
4355;SDS011;2191;51.482;7.408;2022-08-19T11:19:32;10.57;;;9.57;;
4355;SDS011;2191;51.482;7.408;2022-08-19T11:22:00;14.33;;;12.83;;
4355;SDS011;2191;51.482;7.408;2022-08-19T11:24:29;15.93;;;10.90;;
4355;SDS011;2191;51.482;7.408;2022-08-19T11:27:02;10.23;;;9.20;;
4355;SDS011;2191;51.482;7.408;2022-08-19T11:29:34;13.10;;;11.80;;
4355;SDS011;2191;51.482;7.408;2022-08-19T11:32:04;12.80;;;11.30;;
4355;SDS011;2191;51.482;7.408;2022-08-19T11:34:33;12.03;;;10.80;;
4355;SDS011;2191;51.482;7.408;2022-08-19T11:37:02;13.73;;;9.90;;
4355;SDS011;2191;51.482;7.408;2022-08-19T11:39:33;8.97;;;8.17;;
4355;SDS011;2191;51.482;7.408;2022-08-19T11:42:06;11.27;;;10.27;;
4355;SDS011;2191;51.482;7.408;2022-08-19T11:44:49;17.00;;;9.80;;
4355;SDS011;2191;51.482;7.408;2022-08-19T11:47:18;10.13;;;9.23;;
4355;SDS011;2191;51.482;7.408;2022-08-19T11:49:46;11.93;;;10.47;;
4355;SDS011;2191;51.482;7.408;2022-08-19T11:52:14;13.50;;;12.20;;
4355;SDS011;2191;51.482;7.408;2022-08-19T11:54:42;12.30;;;11.10;;
4355;SDS011;2191;51.482;7.408;2022-08-19T11:57:10;11.47;;;10.47;;
4355;SDS011;2191;51.482;7.408;2022-08-19T11:59:38;18.17;;;14.57;;
4355;SDS011;2191;51.482;7.408;2022-08-19T12:02:07;18.87;;;16.63;;
4355;SDS011;2191;51.482;7.408;2022-08-19T12:04:36;18.37;;;16.53;;
4355;SDS011;2191;51.482;7.408;2022-08-19T12:07:04;13.87;;;12.47;;
4355;SDS011;2191;51.482;7.408;2022-08-19T12:09:32;20.50;;;11.10;;
4355;SDS011;2191;51.482;7.408;2022-08-19T12:12:08;18.17;;;16.37;;
4355;SDS011;2191;51.482;7.408;2022-08-19T12:14:36;14.00;;;12.80;;
4355;SDS011;2191;51.482;7.408;2022-08-19T12:17:04;13.73;;;12.50;;
4355;SDS011;2191;51.482;7.408;2022-08-19T12:19:37;15.67;;;14.30;;
4355;SDS011;2191;51.482;7.408;2022-08-19T12:22:05;16.33;;;14.63;;
4355;SDS011;2191;51.482;7.408;2022-08-19T12:24:33;14.17;;;12.87;;
4355;SDS011;2191;51.482;7.408;2022-08-19T12:27:02;14.80;;;13.30;;
4355;SDS011;2191;51.482;7.408;2022-08-19T12:29:38;13.33;;;11.93;;
4355;SDS011;2191;51.482;7.408;2022-08-19T12:32:07;12.43;;;11.30;;
4355;SDS011;2191;51.482;7.408;2022-08-19T12:34:38;11.93;;;10.83;;
4355;SDS011;2191;51.482;7.408;2022-08-19T12:37:07;14.60;;;12.50;;
4355;SDS011;2191;51.482;7.408;2022-08-19T12:39:37;13.53;;;11.90;;
4355;SDS011;2191;51.482;7.408;2022-08-19T12:42:07;12.73;;;11.00;;
4355;SDS011;2191;51.482;7.408;2022-08-19T12:44:36;12.10;;;11.07;;
4355;SDS011;2191;51.482;7.408;2022-08-19T12:47:08;10.77;;;9.67;;
4355;SDS011;2191;51.482;7.408;2022-08-19T12:49:39;13.20;;;11.90;;
4355;SDS011;2191;51.482;7.408;2022-08-19T12:52:20;12.07;;;11.07;;
4355;SDS011;2191;51.482;7.408;2022-08-19T12:54:49;13.00;;;10.50;;
4355;SDS011;2191;51.482;7.408;2022-08-19T12:57:20;11.40;;;10.40;;
4355;SDS011;2191;51.482;7.408;2022-08-19T12:59:57;11.27;;;10.20;;
4355;SDS011;2191;51.482;7.408;2022-08-19T13:02:29;13.43;;;12.20;;
4355;SDS011;2191;51.482;7.408;2022-08-19T13:05:06;16.10;;;11.57;;
4355;SDS011;2191;51.482;7.408;2022-08-19T13:07:37;12.07;;;10.90;;
4355;SDS011;2191;51.482;7.408;2022-08-19T13:10:06;13.60;;;12.20;;
4355;SDS011;2191;51.482;7.408;2022-08-19T13:12:37;9.40;;;8.57;;
4355;SDS011;2191;51.482;7.408;2022-08-19T13:15:07;12.27;;;11.13;;
4355;SDS011;2191;51.482;7.408;2022-08-19T13:17:37;11.13;;;10.03;;
4355;SDS011;2191;51.482;7.408;2022-08-19T13:20:08;10.23;;;9.23;;
4355;SDS011;2191;51.482;7.408;2022-08-19T13:22:37;10.00;;;9.00;;
4355;SDS011;2191;51.482;7.408;2022-08-19T13:25:06;9.50;;;8.60;;
4355;SDS011;2191;51.482;7.408;2022-08-19T13:27:38;9.27;;;7.97;;
4355;SDS011;2191;51.482;7.408;2022-08-19T13:30:07;8.20;;;7.47;;
4355;SDS011;2191;51.482;7.408;2022-08-19T13:32:55;10.23;;;7.50;;
4355;SDS011;2191;51.482;7.408;2022-08-19T13:35:44;9.03;;;6.73;;
4355;SDS011;2191;51.482;7.408;2022-08-19T13:38:16;8.83;;;8.00;;
4355;SDS011;2191;51.482;7.408;2022-08-19T13:40:46;10.00;;;7.27;;
4355;SDS011;2191;51.482;7.408;2022-08-19T13:43:16;10.07;;;7.60;;
4355;SDS011;2191;51.482;7.408;2022-08-19T13:45:48;10.20;;;8.20;;
4355;SDS011;2191;51.482;7.408;2022-08-19T13:48:22;8.10;;;7.40;;
4355;SDS011;2191;51.482;7.408;2022-08-19T13:50:53;7.20;;;6.60;;
4355;SDS011;2191;51.482;7.408;2022-08-19T13:53:22;10.47;;;8.27;;
4355;SDS011;2191;51.482;7.408;2022-08-19T13:55:50;8.63;;;6.23;;
4355;SDS011;2191;51.482;7.408;2022-08-19T13:58:19;7.43;;;6.87;;
4355;SDS011;2191;51.482;7.408;2022-08-19T14:00:48;8.10;;;7.30;;
4355;SDS011;2191;51.482;7.408;2022-08-19T14:03:16;7.20;;;6.60;;
4355;SDS011;2191;51.482;7.408;2022-08-19T14:05:44;8.13;;;7.33;;
4355;SDS011;2191;51.482;7.408;2022-08-19T14:08:14;8.30;;;7.60;;
4355;SDS011;2191;51.482;7.408;2022-08-19T14:10:42;8.73;;;8.03;;
4355;SDS011;2191;51.482;7.408;2022-08-19T14:13:13;7.80;;;7.03;;
4355;SDS011;2191;51.482;7.408;2022-08-19T14:15:46;7.67;;;6.87;;
4355;SDS011;2191;51.482;7.408;2022-08-19T14:18:14;8.10;;;7.10;;
4355;SDS011;2191;51.482;7.408;2022-08-19T14:20:43;7.50;;;6.90;;
4355;SDS011;2191;51.482;7.408;2022-08-19T14:23:11;11.50;;;7.80;;
4355;SDS011;2191;51.482;7.408;2022-08-19T14:25:41;7.70;;;7.10;;
4355;SDS011;2191;51.482;7.408;2022-08-19T14:28:10;8.30;;;7.47;;
4355;SDS011;2191;51.482;7.408;2022-08-19T14:30:38;8.63;;;7.03;;
4355;SDS011;2191;51.482;7.408;2022-08-19T14:33:06;13.47;;;7.47;;
4355;SDS011;2191;51.482;7.408;2022-08-19T14:35:36;9.33;;;6.70;;
4355;SDS011;2191;51.482;7.408;2022-08-19T14:38:14;6.50;;;5.77;;
4355;SDS011;2191;51.482;7.408;2022-08-19T14:40:54;7.20;;;5.60;;
4355;SDS011;2191;51.482;7.408;2022-08-19T14:43:23;7.90;;;7.10;;
4355;SDS011;2191;51.482;7.408;2022-08-19T14:45:51;6.93;;;5.80;;
4355;SDS011;2191;51.482;7.408;2022-08-19T14:48:19;13.00;;;6.17;;
4355;SDS011;2191;51.482;7.408;2022-08-19T14:50:54;5.90;;;5.40;;
4355;SDS011;2191;51.482;7.408;2022-08-19T14:53:22;6.57;;;5.87;;
4355;SDS011;2191;51.482;7.408;2022-08-19T14:55:50;7.60;;;5.57;;
4355;SDS011;2191;51.482;7.408;2022-08-19T14:58:19;6.17;;;5.53;;
4355;SDS011;2191;51.482;7.408;2022-08-19T15:00:55;8.67;;;6.00;;
4355;SDS011;2191;51.482;7.408;2022-08-19T15:03:26;6.60;;;6.10;;
4355;SDS011;2191;51.482;7.408;2022-08-19T15:05:54;6.67;;;6.07;;
4355;SDS011;2191;51.482;7.408;2022-08-19T15:08:23;6.77;;;5.40;;
4355;SDS011;2191;51.482;7.408;2022-08-19T15:10:54;5.63;;;5.13;;
4355;SDS011;2191;51.482;7.408;2022-08-19T15:13:24;6.27;;;5.77;;
4355;SDS011;2191;51.482;7.408;2022-08-19T15:15:53;6.03;;;5.47;;
4355;SDS011;2191;51.482;7.408;2022-08-19T15:18:23;6.83;;;5.93;;
4355;SDS011;2191;51.482;7.408;2022-08-19T15:20:51;6.10;;;5.47;;